Time;durP1;ratioP1;P1;durP2;ratioP2;P2;SDS_P1;SDS_P2;PMS_P1;PMS_P2;Temp;Humidity;BMP_temperature;BMP_pressure;BME280_temperature;BME280_humidity;BME280_pressure;Samples;Min_cycle;Max_cycle;Signal;HPM_P1;HPM_P2
2023/01/18 00:02:48;;;;;;;6.10;2.60;;;-2.30;99.90;;;;;;10241815;23;20011;-81
2023/01/18 00:06:49;;;;;;;4.35;2.38;;;-2.50;99.90;;;;;;10241621;23;20001;-80
2023/01/18 00:10:49;;;;;;;4.88;2.80;;;-2.20;99.90;;;;;;10216152;23;20009;-81
2023/01/18 00:14:50;;;;;;;7.45;3.10;;;-2.00;99.90;;;;;;10216251;23;20021;-80
2023/01/18 00:18:55;;;;;;;6.25;3.40;;;-2.00;99.90;;;;;;10216896;23;20392;-79
2023/01/18 00:22:58;;;;;;;5.95;3.53;;;-1.80;99.90;;;;;;10216590;23;20068;-80
2023/01/18 00:26:59;;;;;;;6.18;2.75;;;-1.60;99.90;;;;;;10215656;23;20008;-80
2023/01/18 00:30:59;;;;;;;7.15;3.17;;;-1.40;99.90;;;;;;10215377;23;20009;-80
2023/01/18 00:35:03;;;;;;;8.48;3.35;;;-1.40;99.90;;;;;;10213545;23;20009;-82
2023/01/18 00:39:03;;;;;;;5.53;3.05;;;-1.30;99.90;;;;;;10243171;23;20001;-81
2023/01/18 00:47:23;;;;;;;6.55;3.80;;;-1.90;99.90;;;;;;10242265;23;20019;-80
2023/01/18 00:51:24;;;;;;;6.55;3.28;;;-2.20;99.90;;;;;;10215702;23;20020;-81
2023/01/18 00:55:25;;;;;;;7.47;3.50;;;-2.40;99.90;;;;;;10217573;23;20056;-80
2023/01/18 00:59:26;;;;;;;4.20;2.92;;;-2.10;99.90;;;;;;10215010;23;20012;-79
2023/01/18 01:03:26;;;;;;;5.55;2.90;;;-2.10;99.90;;;;;;10215139;23;20474;-82
2023/01/18 01:07:27;;;;;;;6.65;3.25;;;-1.90;99.90;;;;;;10213854;23;20001;-79
2023/01/18 01:11:27;;;;;;;7.78;3.15;;;-2.00;99.90;;;;;;10214070;23;20005;-81
2023/01/18 01:28:25;;;;;;;4.32;2.88;;;-1.20;99.90;;;;;;10239140;23;20024;-81
2023/01/18 01:32:26;;;;;;;4.40;2.28;;;-0.90;99.90;;;;;;10213834;23;20009;-79
2023/01/18 01:36:27;;;;;;;5.43;2.67;;;-0.70;99.90;;;;;;10211211;23;20063;-80
2023/01/18 01:40:27;;;;;;;5.03;3.13;;;-0.70;99.90;;;;;;10212453;23;20041;-82
2023/01/18 01:44:32;;;;;;;3.85;2.30;;;-0.50;99.90;;;;;;10238989;23;20005;-80
2023/01/18 01:48:36;;;;;;;4.03;2.70;;;-0.40;99.90;;;;;;10217214;23;19989;-80
2023/01/18 01:52:40;;;;;;;4.90;3.03;;;-0.20;99.90;;;;;;10214385;23;20443;-81
2023/01/18 01:56:44;;;;;;;2.67;1.73;;;-0.20;99.90;;;;;;10238659;23;20016;-81
2023/01/18 02:00:44;;;;;;;4.97;2.55;;;0.00;99.90;;;;;;10237943;23;20008;-81
2023/01/18 02:04:52;;;;;;;6.25;2.65;;;0.10;99.90;;;;;;10211213;23;20036;-81
2023/01/18 02:08:52;;;;;;;3.85;1.98;;;0.20;99.90;;;;;;10237569;23;19994;-81
2023/01/18 02:12:53;;;;;;;3.60;2.22;;;0.00;99.90;;;;;;10237983;23;20012;-81
2023/01/18 02:17:19;;;;;;;2.00;1.02;;;0.10;99.90;;;;;;10211538;23;20371;-81
2023/01/18 02:21:30;;;;;;;1.75;1.33;;;0.30;99.90;;;;;;10237946;23;20008;-81
2023/01/18 02:26:08;;;;;;;4.25;2.38;;;0.40;99.90;;;;;;10211435;23;20009;-81
2023/01/18 02:30:28;;;;;;;5.80;2.55;;;0.40;99.90;;;;;;10210113;23;20019;-81
2023/01/18 02:34:40;;;;;;;5.70;2.05;;;0.50;99.90;;;;;;10212028;23;20009;-81
2023/01/18 02:38:44;;;;;;;6.13;2.88;;;0.40;99.90;;;;;;10238590;23;20028;-81
2023/01/18 02:47:07;;;;;;;6.15;3.00;;;0.40;99.90;;;;;;10238673;23;20047;-82
2023/01/18 02:51:08;;;;;;;5.28;2.90;;;0.20;99.90;;;;;;10211820;23;20428;-81
2023/01/18 02:55:16;;;;;;;5.68;2.97;;;0.00;99.90;;;;;;10211591;23;20068;-82
2023/01/18 02:59:26;;;;;;;6.75;3.65;;;0.00;99.90;;;;;;10210753;23;20009;-81
2023/01/18 03:03:27;;;;;;;;;;;-0.10;99.90;;;;;;10211745;23;20059;-82
2023/01/18 03:07:53;;;;;;;2.42;1.48;;;-0.10;99.90;;;;;;10211390;23;19901;-81
2023/01/18 03:12:05;;;;;;;4.97;2.83;;;0.00;99.90;;;;;;10237632;23;20005;-81
2023/01/18 03:16:11;;;;;;;4.95;2.67;;;0.00;99.90;;;;;;10211084;23;20004;-82
2023/01/18 03:20:16;;;;;;;5.72;3.22;;;0.00;99.90;;;;;;10210737;23;20001;-81
2023/01/18 03:24:18;;;;;;;7.25;3.60;;;-0.20;99.90;;;;;;10210491;23;20001;-81
2023/01/18 03:37:03;;;;;;;8.10;4.03;;;-0.10;99.90;;;;;;10236827;23;20071;-81
2023/01/18 03:41:05;;;;;;;3.35;2.10;;;0.20;99.90;;;;;;10209894;23;20016;-81
2023/01/18 03:45:14;;;;;;;7.32;3.78;;;0.40;99.90;;;;;;10210775;23;20005;-81
2023/01/18 03:49:15;;;;;;;8.13;3.80;;;0.70;99.90;;;;;;10209955;23;20009;-81
2023/01/18 03:53:27;;;;;;;8.90;5.05;;;0.60;99.90;;;;;;10235921;23;20044;-81
2023/01/18 03:57:46;;;;;;;8.48;4.40;;;0.60;99.90;;;;;;10236282;23;20329;-81
2023/01/18 04:01:47;;;;;;;8.00;4.00;;;0.70;99.90;;;;;;10235140;23;20005;-81
2023/01/18 04:05:48;;;;;;;8.80;4.03;;;0.60;99.90;;;;;;10209345;23;20016;-81
2023/01/18 04:09:49;;;;;;;8.77;5.03;;;0.70;99.90;;;;;;10235853;23;20001;-81
2023/01/18 04:13:49;;;;;;;8.45;3.42;;;0.70;99.90;;;;;;10235638;23;20461;-81
2023/01/18 04:17:52;;;;;;;8.55;3.63;;;0.90;99.90;;;;;;10209592;23;20013;-80
2023/01/18 04:21:52;;;;;;;8.35;4.13;;;1.00;99.90;;;;;;10234474;23;20004;-81
2023/01/18 04:25:53;;;;;;;9.45;4.28;;;1.10;99.90;;;;;;10211115;23;20024;-81
2023/01/18 04:29:54;;;;;;;10.05;4.32;;;1.00;99.90;;;;;;10210067;23;20020;-81
2023/01/18 04:33:54;;;;;;;7.90;3.97;;;0.90;99.90;;;;;;10210212;23;20005;-80
2023/01/18 04:37:55;;;;;;;6.10;3.33;;;0.90;99.90;;;;;;10239268;23;20005;-80
2023/01/18 04:41:55;;;;;;;9.15;3.88;;;0.90;99.90;;;;;;10212303;23;20005;-81
2023/01/18 04:45:56;;;;;;;7.40;3.50;;;0.90;99.90;;;;;;10212465;23;20451;-81
2023/01/18 04:49:57;;;;;;;7.88;3.80;;;0.80;99.90;;;;;;10212723;23;20364;-80
2023/01/18 04:53:58;;;;;;;8.02;3.58;;;0.80;99.90;;;;;;10211356;23;20024;-81
2023/01/18 04:57:59;;;;;;;6.95;3.67;;;0.90;99.90;;;;;;10211619;23;20033;-81
2023/01/18 05:02:00;;;;;;;5.22;2.53;;;0.90;99.90;;;;;;10212502;23;20021;-81
2023/01/18 05:06:00;;;;;;;4.00;1.75;;;1.00;99.90;;;;;;10238253;23;20011;-81
2023/01/18 05:10:02;;;;;;;4.43;2.08;;;1.00;99.90;;;;;;10212613;23;20001;-81
2023/01/18 05:14:02;;;;;;;3.85;2.15;;;1.00;99.90;;;;;;10212434;23;20036;-81
2023/01/18 05:18:04;;;;;;;3.42;1.75;;;1.20;99.90;;;;;;10212719;23;20020;-80
2023/01/18 05:22:05;;;;;;;2.85;1.63;;;1.30;99.90;;;;;;10211762;23;20044;-81
2023/01/18 05:26:17;;;;;;;4.25;2.28;;;1.20;99.90;;;;;;10211945;23;20514;-80
2023/01/18 05:30:17;;;;;;;3.40;1.80;;;1.30;99.90;;;;;;10237689;23;20436;-80
2023/01/18 05:34:18;;;;;;;1.60;1.40;;;1.30;99.90;;;;;;10211200;23;20095;-80
2023/01/18 05:38:19;;;;;;;2.72;1.38;;;1.30;99.90;;;;;;10211432;23;20068;-80
2023/01/18 05:42:20;;;;;;;5.22;2.47;;;1.30;99.90;;;;;;10207515;23;20035;-80
2023/01/18 05:46:20;;;;;;;3.97;2.05;;;1.40;99.90;;;;;;10209448;23;20005;-79
2023/01/18 05:50:24;;;;;;;4.82;2.33;;;1.40;99.90;;;;;;10211978;23;20005;-80
2023/01/18 05:54:24;;;;;;;3.90;1.95;;;1.30;99.90;;;;;;10231766;23;20013;-80
2023/01/18 05:58:27;;;;;;;3.15;2.08;;;1.30;99.90;;;;;;10205700;23;20268;-80
2023/01/18 06:02:27;;;;;;;3.05;1.90;;;1.40;99.90;;;;;;10206765;23;20347;-80
2023/01/18 06:06:28;;;;;;;2.72;1.40;;;1.40;99.90;;;;;;10205934;23;20001;-80
2023/01/18 06:10:28;;;;;;;2.85;1.60;;;1.40;99.90;;;;;;10233597;23;20439;-80
2023/01/18 06:14:29;;;;;;;3.08;1.40;;;1.50;99.90;;;;;;10206489;23;20005;-80
2023/01/18 06:18:31;;;;;;;3.17;2.17;;;1.50;99.90;;;;;;10208602;23;20009;-80
2023/01/18 06:22:32;;;;;;;2.92;2.00;;;1.50;99.90;;;;;;10209872;23;20165;-80
2023/01/18 06:26:33;;;;;;;3.55;2.40;;;1.50;99.90;;;;;;10207136;23;20454;-80
2023/01/18 06:30:33;;;;;;;2.60;1.83;;;1.50;99.90;;;;;;10236484;23;20439;-80
2023/01/18 06:34:35;;;;;;;2.65;1.35;;;1.50;99.90;;;;;;10209043;23;20064;-80
2023/01/18 06:38:36;;;;;;;3.58;1.77;;;1.50;99.90;;;;;;10208500;23;20029;-80
2023/01/18 06:42:37;;;;;;;1.88;1.33;;;1.50;99.90;;;;;;10206813;23;20005;-80
2023/01/18 06:46:38;;;;;;;3.63;1.73;;;1.50;99.90;;;;;;10207655;23;20009;-80
2023/01/18 06:50:38;;;;;;;3.13;1.50;;;1.40;99.90;;;;;;10206974;23;20356;-80
2023/01/18 06:54:39;;;;;;;3.05;1.67;;;1.40;99.90;;;;;;10206458;23;20012;-79
2023/01/18 06:58:39;;;;;;;1.60;0.88;;;1.40;99.90;;;;;;10205069;23;20020;-80
2023/01/18 07:02:40;;;;;;;2.13;1.40;;;1.50;99.90;;;;;;10206416;23;20087;-79
2023/01/18 07:06:40;;;;;;;2.38;1.25;;;1.40;99.90;;;;;;10232158;23;20067;-80
2023/01/18 07:10:41;;;;;;;2.28;1.67;;;1.40;99.90;;;;;;10206891;23;20055;-79
2023/01/18 07:14:41;;;;;;;1.02;0.82;;;1.30;99.90;;;;;;10205496;23;20064;-79
2023/01/18 07:18:45;;;;;;;3.13;1.92;;;1.40;99.90;;;;;;10231967;23;20036;-79
2023/01/18 07:22:50;;;;;;;2.72;1.63;;;1.20;99.90;;;;;;10205441;23;20016;-79
2023/01/18 07:26:51;;;;;;;1.67;1.27;;;1.20;99.90;;;;;;10205531;23;20019;-79
2023/01/18 07:30:51;;;;;;;3.75;1.80;;;1.20;99.90;;;;;;10205617;23;20040;-79
2023/01/18 07:34:51;;;;;;;2.22;1.60;;;1.10;99.90;;;;;;10205358;23;20005;-79
2023/01/18 07:38:52;;;;;;;3.58;1.52;;;1.10;99.90;;;;;;10231782;23;20067;-79
2023/01/18 07:42:56;;;;;;;1.85;1.30;;;1.10;99.90;;;;;;10204750;23;20009;-79
2023/01/18 07:46:57;;;;;;;2.50;1.40;;;1.20;99.90;;;;;;10231439;23;19997;-79
2023/01/18 07:51:00;;;;;;;2.65;1.42;;;1.20;99.90;;;;;;10204780;23;20016;-79
2023/01/18 07:55:00;;;;;;;3.63;1.77;;;1.20;99.90;;;;;;10205493;23;20013;-79
2023/01/18 07:59:01;;;;;;;0.60;0.60;;;1.40;99.90;;;;;;10206606;23;20051;-80
2023/01/18 08:03:01;;;;;;;2.28;1.80;;;1.50;99.90;;;;;;10205583;23;20033;-79
2023/01/18 08:07:02;;;;;;;5.63;3.03;;;1.40;99.90;;;;;;10206741;23;20012;-80
2023/01/18 08:11:05;;;;;;;4.95;2.67;;;1.40;99.90;;;;;;10209291;23;20008;-79
2023/01/18 08:15:06;;;;;;;3.58;1.85;;;1.50;99.90;;;;;;10211334;23;20035;-79
2023/01/18 08:19:07;;;;;;;3.00;1.55;;;1.70;99.90;;;;;;10238752;23;20008;-79
2023/01/18 08:23:08;;;;;;;2.65;1.80;;;1.70;99.90;;;;;;10210729;23;20101;-79
2023/01/18 08:27:08;;;;;;;0.98;0.68;;;1.50;99.90;;;;;;10238911;23;20009;-79
2023/01/18 08:31:18;;;;;;;4.07;1.58;;;1.20;99.90;;;;;;10210669;23;20444;-79
2023/01/18 08:35:19;;;;;;;2.40;1.45;;;1.10;99.90;;;;;;10211424;23;20009;-79
2023/01/18 08:39:19;;;;;;;3.45;1.83;;;1.10;99.90;;;;;;10210764;23;20009;-80
2023/01/18 08:43:22;;;;;;;0.75;0.15;;;1.10;99.90;;;;;;10210392;23;20310;-80
2023/01/18 08:47:23;;;;;;;2.42;1.45;;;1.20;99.90;;;;;;10211873;23;20451;-79
2023/01/18 08:51:24;;;;;;;4.45;1.58;;;1.30;99.90;;;;;;10211107;23;20028;-79
2023/01/18 08:55:26;;;;;;;2.33;1.45;;;1.30;99.90;;;;;;10210731;23;20013;-79
2023/01/18 08:59:27;;;;;;;1.98;1.00;;;1.50;99.90;;;;;;10210095;23;20131;-79
2023/01/18 09:03:27;;;;;;;2.58;1.40;;;1.50;99.90;;;;;;10237967;23;20002;-79
2023/01/18 09:07:28;;;;;;;1.95;1.27;;;1.50;99.90;;;;;;10238037;23;19997;-79
2023/01/18 09:11:28;;;;;;;2.90;1.10;;;1.50;99.90;;;;;;10211340;23;20040;-79
2023/01/18 09:15:29;;;;;;;2.53;1.40;;;1.60;99.90;;;;;;10210784;23;20059;-79
2023/01/18 09:19:29;;;;;;;2.40;1.20;;;1.60;99.90;;;;;;10211628;23;20064;-79
2023/01/18 09:23:30;;;;;;;0.95;0.85;;;1.60;99.90;;;;;;10210710;23;20017;-79
2023/01/18 09:27:31;;;;;;;0.47;0.47;;;1.50;99.90;;;;;;10237857;23;20067;-79
2023/01/18 09:31:32;;;;;;;2.67;1.48;;;1.30;99.90;;;;;;10209561;23;20016;-79
2023/01/18 09:35:33;;;;;;;2.53;1.10;;;1.30;99.90;;;;;;10209557;23;20103;-80
2023/01/18 09:39:33;;;;;;;2.55;1.30;;;1.50;99.90;;;;;;10209889;23;20458;-79
2023/01/18 09:43:46;;;;;;;1.95;1.23;;;1.80;99.90;;;;;;10209669;23;20013;-78
2023/01/18 09:47:52;;;;;;;2.08;1.00;;;2.00;99.90;;;;;;10210155;23;20342;-79
2023/01/18 09:52:18;;;;;;;2.00;1.58;;;2.20;99.90;;;;;;10209337;23;20024;-80
2023/01/18 09:56:24;;;;;;;1.33;1.08;;;2.50;99.90;;;;;;10209093;23;20009;-79
2023/01/18 10:00:27;;;;;;;1.73;1.00;;;2.70;99.90;;;;;;10208647;23;20518;-79
2023/01/18 10:04:35;;;;;;;2.10;0.55;;;2.80;99.90;;;;;;10234661;23;20001;-79
2023/01/18 10:08:45;;;;;;;1.50;0.93;;;2.60;99.90;;;;;;10208764;23;20009;-79
2023/01/18 10:12:52;;;;;;;1.42;1.00;;;2.80;99.90;;;;;;10209436;23;20068;-79
2023/01/18 10:16:56;;;;;;;0.15;0.08;;;2.30;99.90;;;;;;10211992;23;20011;-78
2023/01/18 10:21:00;;;;;;;0.55;0.47;;;2.20;99.90;;;;;;10210094;23;20347;-78
2023/01/18 10:25:32;;;;;;;0.65;0.65;;;2.00;99.90;;;;;;10235709;23;20001;-79
2023/01/18 10:29:53;;;;;;;1.20;0.70;;;1.80;99.90;;;;;;10209814;23;20367;-79
2023/01/18 10:33:57;;;;;;;1.05;0.63;;;1.90;99.90;;;;;;10235730;23;20241;-79
2023/01/18 10:38:03;;;;;;;0.82;0.70;;;2.10;99.90;;;;;;10209180;23;20173;-79
2023/01/18 10:42:31;;;;;;;1.17;0.55;;;2.20;99.90;;;;;;10208158;23;20012;-79
2023/01/18 10:46:31;;;;;;;2.67;0.68;;;2.40;99.90;;;;;;10208367;23;20006;-79
2023/01/18 10:50:38;;;;;;;0.45;0.45;;;2.80;99.90;;;;;;10235331;23;20083;-79
2023/01/18 10:54:39;;;;;;;1.05;0.65;;;2.80;99.90;;;;;;10207834;23;20526;-78
2023/01/18 10:58:47;;;;;;;0.68;0.57;;;2.80;99.90;;;;;;10235047;23;20001;-79
2023/01/18 11:02:50;;;;;;;0.50;0.50;;;2.60;99.90;;;;;;10208552;23;20004;-78
2023/01/18 11:06:57;;;;;;;1.23;0.80;;;2.00;99.90;;;;;;10208451;23;20212;-79
2023/01/18 11:10:59;;;;;;;0.47;0.47;;;1.90;99.90;;;;;;10209715;23;20005;-78
2023/01/18 11:15:12;;;;;;;1.10;0.85;;;2.10;99.90;;;;;;10208521;23;20005;-79
2023/01/18 11:19:16;;;;;;;1.45;0.77;;;2.30;99.90;;;;;;10235867;23;20008;-79
2023/01/18 11:23:35;;;;;;;0.60;0.50;;;2.60;99.90;;;;;;10209540;23;20009;-79
2023/01/18 11:27:35;;;;;;;0.90;0.52;;;2.90;99.90;;;;;;10238033;23;20092;-80
2023/01/18 11:31:45;;;;;;;0.63;0.47;;;3.20;99.90;;;;;;10236462;23;20001;-79
2023/01/18 11:35:50;;;;;;;0.10;0.10;;;3.00;99.90;;;;;;10209835;23;20071;-78
2023/01/18 11:39:51;;;;;;;0.95;0.60;;;2.60;99.90;;;;;;10209661;23;20354;-80
2023/01/18 11:44:12;;;;;;;1.52;0.80;;;2.40;99.90;;;;;;10210011;23;20005;-79
2023/01/18 11:48:31;;;;;;;1.00;0.90;;;2.50;99.90;;;;;;10210079;23;20012;-79
2023/01/18 11:52:45;;;;;;;0.43;0.38;;;2.60;99.90;;;;;;10209959;23;20040;-80
2023/01/18 11:56:48;;;;;;;0.10;0.10;;;2.30;99.90;;;;;;10237479;23;20174;-80
2023/01/18 12:01:07;;;;;;;0.40;0.40;;;2.10;99.90;;;;;;10209933;23;20046;-79
2023/01/18 12:05:35;;;;;;;1.58;0.98;;;2.00;99.90;;;;;;10210532;23;20020;-80
2023/01/18 12:09:54;;;;;;;1.17;0.80;;;1.90;99.90;;;;;;10236644;23;20068;-79
2023/01/18 12:14:04;;;;;;;2.15;1.05;;;1.90;99.90;;;;;;10207186;23;20471;-80
2023/01/18 12:18:07;;;;;;;;;;;2.10;99.90;;;;;;10211585;23;20005;-79
2023/01/18 12:22:59;;;;;;;3.35;1.10;;;1.90;99.90;;;;;;10237298;23;19904;-79
2023/01/18 12:27:22;;;;;;;2.67;0.93;;;1.80;99.90;;;;;;10164375;23;20218;-79
2023/01/18 12:31:49;;;;;;;3.22;1.67;;;2.00;99.90;;;;;;10211507;23;20009;-80
2023/01/18 12:36:10;;;;;;;1.90;1.25;;;2.20;99.90;;;;;;10213390;23;20016;-79
2023/01/18 12:40:38;;;;;;;1.55;0.77;;;1.80;99.90;;;;;;10209843;23;20024;-79
2023/01/18 12:44:53;;;;;;;1.90;1.13;;;1.80;99.90;;;;;;10210284;23;20005;-78
2023/01/18 12:49:06;;;;;;;0.75;0.45;;;1.80;99.90;;;;;;10241601;23;19997;-79
2023/01/18 12:53:35;;;;;;;0.52;0.35;;;1.70;99.90;;;;;;10214913;23;20013;-78
2023/01/18 12:57:35;;;;;;;0.75;0.22;;;1.30;99.90;;;;;;10232863;23;20009;-78
2023/01/18 13:01:43;;;;;;;1.05;0.43;;;1.50;99.90;;;;;;10229257;23;20009;-78
2023/01/18 13:05:52;;;;;;;2.25;1.55;;;1.30;99.90;;;;;;10207618;23;20477;-78
2023/01/18 13:09:54;;;;;;;4.63;1.15;;;1.30;99.90;;;;;;10234444;23;20012;-78
2023/01/18 13:14:22;;;;;;;0.60;0.60;;;1.30;99.90;;;;;;10207939;23;20096;-78
2023/01/18 13:18:46;;;;;;;1.02;0.88;;;1.50;99.90;;;;;;10208398;23;20041;-78
2023/01/18 13:23:25;;;;;;;1.25;0.77;;;1.70;99.90;;;;;;10209105;23;20383;-78
2023/01/18 13:27:26;;;;;;;2.10;1.10;;;1.70;99.90;;;;;;10202319;23;20009;-78
2023/01/18 13:31:30;;;;;;;1.60;1.10;;;1.80;99.90;;;;;;10235668;23;20094;-79
2023/01/18 13:35:32;;;;;;;2.72;1.30;;;1.80;99.90;;;;;;10208741;23;20019;-79
2023/01/18 13:39:44;;;;;;;1.67;1.05;;;1.80;99.90;;;;;;10207785;23;20009;-79
2023/01/18 13:43:44;;;;;;;1.20;1.10;;;1.70;99.90;;;;;;10207314;23;20009;-78
2023/01/18 13:47:55;;;;;;;0.82;0.77;;;1.40;99.90;;;;;;10234373;23;20423;-78
2023/01/18 13:51:57;;;;;;;2.10;1.45;;;1.10;99.90;;;;;;10208855;23;20655;-78
2023/01/18 13:56:07;;;;;;;1.80;1.20;;;1.10;99.90;;;;;;10206310;23;20443;-78
2023/01/18 14:00:23;;;;;;;1.63;1.10;;;1.00;99.90;;;;;;10206889;23;20255;-78
2023/01/18 14:04:30;;;;;;;3.30;0.95;;;0.90;99.90;;;;;;10205951;23;20009;-79
2023/01/18 14:08:33;;;;;;;3.00;1.23;;;0.90;99.90;;;;;;10234822;23;20005;-78
2023/01/18 14:12:54;;;;;;;2.40;1.40;;;0.90;99.90;;;;;;10207982;23;20401;-79
2023/01/18 14:17:14;;;;;;;1.80;1.40;;;0.90;99.90;;;;;;10207538;23;20009;-79
2023/01/18 14:21:30;;;;;;;1.85;1.23;;;1.00;99.90;;;;;;10233307;23;20738;-79
2023/01/18 14:25:55;;;;;;;2.35;1.30;;;1.10;99.90;;;;;;10206710;23;20084;-78
2023/01/18 14:30:19;;;;;;;3.03;1.50;;;1.30;99.90;;;;;;10207215;23;20351;-78
2023/01/18 14:34:39;;;;;;;2.80;1.10;;;1.20;99.90;;;;;;10232377;23;19997;-79
2023/01/18 14:38:42;;;;;;;1.30;1.15;;;1.10;99.90;;;;;;10208670;23;20032;-79
2023/01/18 14:42:54;;;;;;;2.17;1.27;;;1.20;99.90;;;;;;10233121;23;20447;-78
2023/01/18 14:46:56;;;;;;;1.55;1.27;;;1.20;99.90;;;;;;10206147;23;20214;-78
2023/01/18 14:50:58;;;;;;;2.17;1.20;;;1.20;99.90;;;;;;10232412;23;20024;-78
2023/01/18 14:54:59;;;;;;;2.80;1.40;;;1.10;99.90;;;;;;10232052;23;20456;-79
2023/01/18 14:59:15;;;;;;;1.13;1.02;;;1.00;99.90;;;;;;10232334;23;20013;-79
2023/01/18 15:03:25;;;;;;;2.53;1.27;;;1.10;99.90;;;;;;10205490;23;20678;-79
2023/01/18 15:07:32;;;;;;;2.17;1.67;;;1.00;99.90;;;;;;10205833;23;20090;-78
2023/01/18 15:11:35;;;;;;;5.55;1.50;;;1.10;99.90;;;;;;10205627;23;20013;-79
2023/01/18 15:15:41;;;;;;;0.35;0.35;;;0.90;99.90;;;;;;10231691;23;20001;-79
2023/01/18 15:19:44;;;;;;;2.03;1.42;;;0.90;99.90;;;;;;10231216;23;20009;-78
2023/01/18 15:23:45;;;;;;;2.30;1.48;;;0.80;99.90;;;;;;10205050;23;20033;-79
2023/01/18 15:27:49;;;;;;;1.10;0.93;;;0.80;99.90;;;;;;10206213;23;20016;-79
2023/01/18 15:31:56;;;;;;;2.28;1.50;;;0.80;99.90;;;;;;10205818;23;20458;-78
2023/01/18 15:36:00;;;;;;;3.15;1.13;;;0.70;99.90;;;;;;10205629;23;20013;-78
2023/01/18 15:40:02;;;;;;;5.88;1.55;;;0.60;99.90;;;;;;10205320;23;20032;-78
2023/01/18 15:44:02;;;;;;;1.52;1.17;;;0.50;99.90;;;;;;10205338;23;20005;-79
2023/01/18 15:48:16;;;;;;;2.67;1.88;;;0.50;99.90;;;;;;10205202;23;20000;-79
2023/01/18 15:52:40;;;;;;;3.15;1.67;;;0.40;99.90;;;;;;10205476;23;20025;-79
2023/01/18 15:56:40;;;;;;;4.55;2.00;;;0.50;99.90;;;;;;10205020;23;20075;-79
2023/01/18 16:00:45;;;;;;;2.67;1.98;;;0.60;99.90;;;;;;10230820;23;20009;-78
2023/01/18 16:04:46;;;;;;;3.92;1.90;;;0.50;99.90;;;;;;10205296;23;20008;-79
2023/01/18 16:09:09;;;;;;;3.45;2.17;;;0.40;99.90;;;;;;10231798;23;20001;-79
2023/01/18 16:13:25;;;;;;;4.00;2.00;;;0.40;99.90;;;;;;10206123;23;20009;-79
2023/01/18 16:17:26;;;;;;;4.22;2.05;;;0.40;99.90;;;;;;10205659;23;20009;-79
2023/01/18 16:21:48;;;;;;;2.42;1.65;;;0.40;99.90;;;;;;10231819;23;20392;-79
2023/01/18 16:25:59;;;;;;;5.28;2.22;;;0.40;99.90;;;;;;10147656;23;20043;-79
2023/01/18 16:30:36;;;;;;;4.53;2.67;;;0.30;99.90;;;;;;10232085;23;20463;-79
2023/01/18 16:34:37;;;;;;;4.15;2.33;;;0.40;99.90;;;;;;10234681;23;20340;-79
2023/01/18 16:38:37;;;;;;;2.65;2.08;;;0.40;99.90;;;;;;10234372;23;20011;-79
2023/01/18 16:42:58;;;;;;;1.58;1.48;;;0.40;99.90;;;;;;10209132;23;20001;-79
2023/01/18 16:46:59;;;;;;;2.25;1.80;;;0.30;99.90;;;;;;10207345;23;20001;-79
2023/01/18 16:51:00;;;;;;;3.75;2.08;;;0.30;99.90;;;;;;10207817;23;20351;-78
2023/01/18 16:55:00;;;;;;;2.80;1.92;;;0.30;99.90;;;;;;10207609;23;20064;-79
2023/01/18 16:59:12;;;;;;;3.05;2.05;;;0.20;99.90;;;;;;10208566;23;20080;-79
2023/01/18 17:03:13;;;;;;;2.63;1.63;;;0.20;99.90;;;;;;10235105;23;20001;-79
2023/01/18 17:07:13;;;;;;;4.65;2.85;;;0.20;99.90;;;;;;10237355;23;20019;-78
2023/01/18 17:11:14;;;;;;;1.75;1.63;;;0.10;99.90;;;;;;10211245;23;20012;-78
2023/01/18 17:15:15;;;;;;;4.72;2.17;;;0.20;99.90;;;;;;10211978;23;20662;-80
2023/01/18 17:19:18;;;;;;;5.32;2.55;;;0.10;99.90;;;;;;10210942;23;20056;-78
2023/01/18 17:23:19;;;;;;;5.63;2.88;;;0.10;99.90;;;;;;10211398;23;20444;-79
2023/01/18 17:27:20;;;;;;;3.95;2.40;;;0.10;99.90;;;;;;10237722;23;20004;-79
2023/01/18 17:31:21;;;;;;;5.30;2.78;;;0.00;99.90;;;;;;10211856;23;20108;-80
2023/01/18 17:35:23;;;;;;;3.80;2.45;;;0.10;99.90;;;;;;10211915;23;20020;-80
2023/01/18 17:39:24;;;;;;;2.97;1.73;;;0.10;99.90;;;;;;10211488;23;20005;-79
2023/01/18 17:43:25;;;;;;;2.17;1.20;;;0.10;99.90;;;;;;10210718;23;20235;-80
2023/01/18 17:47:26;;;;;;;0.38;0.32;;;0.00;99.90;;;;;;10210610;23;20032;-79
2023/01/18 17:51:28;;;;;;;3.15;1.60;;;-0.20;99.90;;;;;;10212975;23;20432;-80
2023/01/18 17:55:29;;;;;;;0.93;0.80;;;-0.10;99.90;;;;;;10210345;23;20024;-81
2023/01/18 17:59:29;;;;;;;1.23;1.08;;;-0.10;99.90;;;;;;10211324;23;20017;-80
2023/01/18 18:03:30;;;;;;;3.50;1.73;;;-0.20;99.90;;;;;;10211954;23;20092;-78
2023/01/18 18:07:30;;;;;;;3.97;2.08;;;-0.10;99.90;;;;;;10240806;23;20212;-78
2023/01/18 18:11:31;;;;;;;5.07;2.05;;;-0.20;99.90;;;;;;10214531;23;20447;-79
2023/01/18 18:15:31;;;;;;;4.43;1.75;;;-0.20;99.90;;;;;;10213278;23;20077;-80
2023/01/18 18:19:32;;;;;;;0.85;0.85;;;-0.10;99.90;;;;;;10241460;23;20012;-80
2023/01/18 18:23:33;;;;;;;3.50;2.05;;;0.00;99.90;;;;;;10215791;23;20092;-80
2023/01/18 18:27:34;;;;;;;1.20;1.00;;;-0.10;99.90;;;;;;10214709;23;20013;-80
2023/01/18 18:31:37;;;;;;;3.45;1.40;;;-0.10;99.90;;;;;;10240096;23;20001;-80
2023/01/18 18:35:37;;;;;;;3.55;1.42;;;0.00;99.90;;;;;;10240602;23;20028;-80
2023/01/18 18:39:38;;;;;;;2.40;1.58;;;-0.10;99.90;;;;;;10212935;23;20009;-79
2023/01/18 18:43:38;;;;;;;3.05;1.90;;;-0.20;99.90;;;;;;10213830;23;20081;-79
2023/01/18 18:47:39;;;;;;;2.90;1.73;;;-0.10;99.90;;;;;;10215068;23;20005;-80
2023/01/18 18:51:39;;;;;;;1.77;1.15;;;-0.10;99.90;;;;;;10215065;23;20024;-80
2023/01/18 18:55:40;;;;;;;6.03;1.95;;;0.10;99.90;;;;;;10241807;23;20335;-81
2023/01/18 18:59:40;;;;;;;2.60;1.58;;;0.00;99.90;;;;;;10213978;23;20093;-79
2023/01/18 19:03:41;;;;;;;4.55;1.95;;;0.10;99.90;;;;;;10210312;23;20048;-78
2023/01/18 19:07:42;;;;;;;1.75;1.42;;;-0.20;99.90;;;;;;10211010;23;20001;-79
2023/01/18 19:11:42;;;;;;;1.65;1.30;;;-0.10;99.90;;;;;;10208840;23;20088;-79
2023/01/18 19:15:47;;;;;;;4.40;1.48;;;0.00;99.90;;;;;;10209440;23;20511;-79
2023/01/18 19:19:48;;;;;;;2.97;1.80;;;-0.20;99.90;;;;;;10211921;23;20009;-80
2023/01/18 19:23:48;;;;;;;5.70;1.95;;;0.00;99.90;;;;;;10210036;23;20005;-80
2023/01/18 19:27:49;;;;;;;3.95;2.33;;;-0.10;99.90;;;;;;10211496;23;20037;-80
2023/01/18 19:31:51;;;;;;;4.47;2.60;;;-0.10;99.90;;;;;;10211873;23;20436;-79
2023/01/18 19:35:51;;;;;;;3.28;1.77;;;-0.20;99.90;;;;;;10212077;23;20016;-79
2023/01/18 19:39:52;;;;;;;5.18;2.25;;;-0.20;99.90;;;;;;10210986;23;20462;-80
2023/01/18 19:43:53;;;;;;;4.07;2.47;;;0.00;99.90;;;;;;10235642;23;20009;-79
2023/01/18 19:47:54;;;;;;;4.57;2.60;;;0.10;99.90;;;;;;10209995;23;20009;-79
2023/01/18 19:51:55;;;;;;;4.10;2.75;;;0.10;99.90;;;;;;10209570;23;20451;-80
2023/01/18 19:55:55;;;;;;;3.40;2.03;;;0.10;99.90;;;;;;10213289;23;20029;-80
2023/01/18 19:59:56;;;;;;;7.15;2.47;;;0.00;99.90;;;;;;10212426;23;20574;-78
2023/01/18 20:03:56;;;;;;;3.55;1.90;;;-0.20;99.90;;;;;;10209490;23;20064;-79
2023/01/18 20:07:57;;;;;;;3.53;2.15;;;-0.10;99.90;;;;;;10241202;23;20007;-80
2023/01/18 20:11:58;;;;;;;2.35;1.70;;;-0.10;99.90;;;;;;10242385;23;20005;-79
2023/01/18 20:15:59;;;;;;;6.22;2.75;;;0.00;99.90;;;;;;10242338;23;20005;-80
2023/01/18 20:20:00;;;;;;;4.30;2.50;;;-0.20;99.90;;;;;;10242392;23;20545;-80
2023/01/18 20:24:00;;;;;;;3.38;2.70;;;-0.10;99.90;;;;;;10241714;23;20008;-80
2023/01/18 20:28:01;;;;;;;4.28;2.60;;;-0.40;99.90;;;;;;10215251;23;20009;-80
2023/01/18 20:32:02;;;;;;;3.95;2.05;;;-0.30;99.90;;;;;;10217005;23;20012;-79
2023/01/18 20:36:04;;;;;;;5.13;2.20;;;-0.20;99.90;;;;;;10243539;23;20372;-80
2023/01/18 20:40:05;;;;;;;4.07;1.85;;;0.00;99.90;;;;;;10216777;23;20095;-79
2023/01/18 20:44:06;;;;;;;3.35;2.25;;;0.00;99.90;;;;;;10216181;23;20005;-80
2023/01/18 20:48:07;;;;;;;6.72;3.28;;;-0.20;99.90;;;;;;10213689;23;20013;-80
2023/01/18 20:52:08;;;;;;;3.70;2.10;;;-0.40;99.90;;;;;;10242083;23;20032;-80
2023/01/18 20:56:10;;;;;;;6.10;3.05;;;-0.50;99.90;;;;;;10214323;23;20044;-79
2023/01/18 21:00:12;;;;;;;6.90;3.00;;;-0.30;99.90;;;;;;10240608;23;20100;-79
2023/01/18 21:04:12;;;;;;;4.63;2.17;;;-0.60;99.90;;;;;;10216203;23;20141;-79
2023/01/18 21:08:14;;;;;;;5.88;2.95;;;-0.70;99.90;;;;;;10241509;23;20001;-79
2023/01/18 21:12:14;;;;;;;6.15;3.05;;;-0.80;99.90;;;;;;10214568;23;20017;-81
2023/01/18 21:16:15;;;;;;;4.47;2.85;;;-1.10;99.90;;;;;;10216268;23;20351;-81
2023/01/18 21:20:15;;;;;;;5.03;2.53;;;-1.20;99.90;;;;;;10216922;23;20016;-80
2023/01/18 21:24:16;;;;;;;7.15;3.40;;;-1.40;99.90;;;;;;10215266;23;20028;-80
2023/01/18 21:28:17;;;;;;;4.63;2.92;;;-1.40;99.90;;;;;;10215207;23;20005;-80
2023/01/18 21:32:18;;;;;;;5.55;2.78;;;-1.40;99.90;;;;;;10241676;23;20191;-80
2023/01/18 21:36:18;;;;;;;5.85;3.35;;;-1.40;99.90;;;;;;10241944;23;20009;-81
2023/01/18 21:40:19;;;;;;;6.75;2.60;;;-1.40;99.90;;;;;;10215412;23;20641;-80
2023/01/18 21:48:39;;;;;;;4.65;2.92;;;-1.30;99.90;;;;;;10241207;23;20093;-81